Time;durP1;ratioP1;P1;durP2;ratioP2;P2;SDS_P1;SDS_P2;PMS_P1;PMS_P2;Temp;Humidity;BMP_temperature;BMP_pressure;BME280_temperature;BME280_humidity;BME280_pressure;Samples;Min_cycle;Max_cycle;Signal;HPM_P1;HPM_P2
2021/03/06 00:00:20;;;;;;;12.93;8.00;;;-2.80;90.00;;;;;;4990035;28;20033;-77
2021/03/06 00:02:46;;;;;;;17.55;8.40;;;-2.80;90.00;;;;;;4991934;28;20025;-78
2021/03/06 00:05:11;;;;;;;13.35;7.93;;;-2.60;88.50;;;;;;5000870;28;20031;-79
2021/03/06 00:07:37;;;;;;;14.43;8.23;;;-2.50;87.30;;;;;;4976939;28;20093;-78
2021/03/06 00:10:07;;;;;;;13.93;8.15;;;-2.50;87.70;;;;;;5008769;28;20056;-78
2021/03/06 00:12:33;;;;;;;13.45;8.73;;;-2.70;88.60;;;;;;4992258;28;20022;-78
2021/03/06 00:14:59;;;;;;;13.35;8.40;;;-2.90;89.40;;;;;;5007130;28;20162;-78
2021/03/06 00:17:24;;;;;;;13.98;7.75;;;-2.80;89.30;;;;;;4964199;28;20033;-78
2021/03/06 00:19:50;;;;;;;14.85;8.93;;;-2.70;88.50;;;;;;4978351;28;20073;-77
2021/03/06 00:22:15;;;;;;;14.70;9.13;;;-2.70;88.20;;;;;;5001437;28;20125;-78
2021/03/06 00:24:41;;;;;;;13.57;8.57;;;-2.70;88.30;;;;;;4965532;28;20030;-78
2021/03/06 00:27:06;;;;;;;16.23;9.77;;;-2.80;89.10;;;;;;4996015;28;20084;-78
2021/03/06 00:29:32;;;;;;;17.42;9.60;;;-2.90;90.00;;;;;;4986013;28;20132;-78
2021/03/06 00:31:57;;;;;;;12.68;7.70;;;-3.00;90.30;;;;;;4985567;28;20038;-78
2021/03/06 00:34:23;;;;;;;19.63;9.32;;;-3.00;90.50;;;;;;4964676;28;20026;-77
2021/03/06 00:36:48;;;;;;;15.55;8.55;;;-2.90;90.40;;;;;;4978152;28;20478;-76
2021/03/06 00:39:14;;;;;;;19.42;7.57;;;-2.80;90.20;;;;;;4984096;28;20311;-77
2021/03/06 00:41:39;;;;;;;16.30;8.57;;;-2.90;89.40;;;;;;4997629;28;20033;-77
2021/03/06 00:44:05;;;;;;;13.85;8.63;;;-2.80;89.20;;;;;;4978765;28;20030;-77
2021/03/06 00:46:30;;;;;;;15.75;7.72;;;-2.80;89.20;;;;;;4995538;28;20068;-77
2021/03/06 00:48:56;;;;;;;15.93;7.85;;;-2.80;88.90;;;;;;5007155;28;20097;-77
2021/03/06 00:51:22;;;;;;;10.52;7.10;;;-2.80;88.60;;;;;;5006554;28;20049;-77
2021/03/06 00:53:47;;;;;;;12.82;7.63;;;-2.70;89.00;;;;;;4991394;28;20034;-76
2021/03/06 00:56:13;;;;;;;13.20;7.43;;;-2.60;88.20;;;;;;4980236;28;20033;-77
2021/03/06 00:58:38;;;;;;;13.63;7.20;;;-2.70;88.30;;;;;;5007342;28;20036;-77
2021/03/06 01:01:05;;;;;;;12.18;7.45;;;-2.70;87.90;;;;;;5000121;28;20037;-76
2021/03/06 01:03:30;;;;;;;13.20;6.88;;;-2.80;87.70;;;;;;4982471;28;20038;-77
2021/03/06 01:05:56;;;;;;;13.27;7.47;;;-2.80;87.80;;;;;;4977934;28;20034;-77
2021/03/06 01:08:22;;;;;;;15.02;6.85;;;-2.80;87.40;;;;;;4984828;28;20030;-78
2021/03/06 01:10:47;;;;;;;14.75;7.63;;;-2.80;88.00;;;;;;5006757;28;20041;-78
2021/03/06 01:13:13;;;;;;;10.35;5.82;;;-2.80;88.60;;;;;;5007945;28;20036;-77
2021/03/06 01:15:40;;;;;;;17.85;7.47;;;-2.90;88.90;;;;;;4980104;28;20033;-77
2021/03/06 01:18:06;;;;;;;10.65;7.00;;;-2.90;87.90;;;;;;5005522;28;20405;-78
2021/03/06 01:20:31;;;;;;;12.50;7.72;;;-3.00;88.50;;;;;;4990818;28;20030;-78
2021/03/06 01:22:57;;;;;;;15.60;7.22;;;-3.00;88.40;;;;;;4992436;28;20036;-78
2021/03/06 01:25:23;;;;;;;12.73;7.22;;;-3.10;89.00;;;;;;4986795;28;20129;-79
2021/03/06 01:27:48;;;;;;;17.45;7.30;;;-3.10;89.00;;;;;;5007746;28;20018;-78
2021/03/06 01:30:14;;;;;;;14.82;7.72;;;-3.20;88.60;;;;;;5007341;28;20021;-78
2021/03/06 01:32:40;;;;;;;15.02;7.88;;;-3.30;89.40;;;;;;4998509;28;20451;-78
2021/03/06 01:35:09;;;;;;;11.35;7.78;;;-3.50;89.80;;;;;;4963438;28;20687;-78
2021/03/06 01:37:35;;;;;;;14.57;8.25;;;-3.60;90.40;;;;;;4961980;28;20398;-77
2021/03/06 01:40:04;;;;;;;12.35;8.00;;;-3.70;90.70;;;;;;4977407;28;20078;-78
2021/03/06 01:42:29;;;;;;;12.05;7.43;;;-3.60;91.00;;;;;;4960273;28;20084;-77
2021/03/06 01:44:55;;;;;;;17.63;8.25;;;-3.60;91.00;;;;;;4988850;28;20030;-77
2021/03/06 01:47:20;;;;;;;12.23;7.30;;;-3.90;91.40;;;;;;4969150;28;20030;-77
2021/03/06 01:49:46;;;;;;;14.32;7.30;;;-4.10;91.80;;;;;;4990489;28;20468;-78
2021/03/06 01:52:12;;;;;;;13.68;8.32;;;-4.00;92.20;;;;;;4988018;28;20033;-77
2021/03/06 01:54:37;;;;;;;14.77;7.80;;;-3.80;91.60;;;;;;4992429;28;20030;-77
2021/03/06 01:57:03;;;;;;;14.77;7.57;;;-3.70;90.50;;;;;;5024938;28;20033;-78
2021/03/06 01:59:29;;;;;;;17.67;9.27;;;-3.70;90.70;;;;;;4987747;28;20108;-78
2021/03/06 02:01:54;;;;;;;15.65;8.98;;;-3.80;91.10;;;;;;4993226;28;20048;-77
2021/03/06 02:04:20;;;;;;;12.63;7.70;;;-3.70;90.70;;;;;;5004605;28;20100;-77
2021/03/06 02:06:45;;;;;;;13.65;8.45;;;-4.00;91.00;;;;;;4979540;28;20464;-78
2021/03/06 02:09:11;;;;;;;14.00;8.68;;;-3.90;91.50;;;;;;4981210;28;20390;-78
2021/03/06 02:12:06;;;;;;;21.48;8.73;;;-3.70;91.70;;;;;;4981581;28;20045;-80
2021/03/06 02:14:44;;;;;;;15.15;8.85;;;-3.70;91.00;;;;;;5019327;28;20080;-78
2021/03/06 02:17:47;;;;;;;14.57;8.27;;;-3.70;91.20;;;;;;5008534;28;20089;-78
2021/03/06 02:20:22;;;;;;;12.48;8.05;;;-3.80;91.50;;;;;;5002555;28;20045;-77
2021/03/06 02:22:56;;;;;;;19.02;8.75;;;-3.80;91.40;;;;;;5005750;28;20564;-78
2021/03/06 02:25:54;;;;;;;12.82;7.90;;;-3.80;91.40;;;;;;4977552;28;20520;-78
2021/03/06 02:29:08;;;;;;;9.35;6.18;;;-3.80;91.30;;;;;;4976105;28;20486;-77
2021/03/06 02:31:34;;;;;;;14.65;7.85;;;-3.90;91.10;;;;;;5007691;28;20559;-78
2021/03/06 02:34:11;;;;;;;13.77;8.07;;;-3.70;90.80;;;;;;5006043;28;20029;-77
2021/03/06 02:36:40;;;;;;;16.13;7.97;;;-4.00;91.60;;;;;;5006680;28;20045;-77
2021/03/06 02:39:05;;;;;;;16.50;7.93;;;-3.90;91.70;;;;;;5008743;28;20039;-77
2021/03/06 02:41:32;;;;;;;16.85;8.85;;;-3.90;91.20;;;;;;4971307;28;20466;-79
2021/03/06 02:43:57;;;;;;;16.00;8.35;;;-3.90;91.10;;;;;;5006095;28;20533;-79
2021/03/06 02:46:24;;;;;;;13.07;8.00;;;-3.90;91.30;;;;;;4989309;28;20124;-77
2021/03/06 02:48:52;;;;;;;14.02;7.82;;;-3.90;91.20;;;;;;4993734;28;20112;-77
2021/03/06 02:51:17;;;;;;;13.73;8.50;;;-3.90;91.40;;;;;;4994995;28;20128;-78
2021/03/06 02:53:43;;;;;;;13.60;8.77;;;-4.10;91.70;;;;;;4981496;28;20132;-78
2021/03/06 02:56:08;;;;;;;16.27;8.75;;;-4.00;91.80;;;;;;4994724;28;20024;-77
2021/03/06 02:59:02;;;;;;;13.32;7.75;;;-4.10;92.00;;;;;;4993862;28;20136;-78
2021/03/06 03:01:52;;;;;;;13.77;7.70;;;-4.00;91.80;;;;;;5007300;28;20030;-77
2021/03/06 03:04:26;;;;;;;11.05;6.90;;;-4.00;91.50;;;;;;5004841;28;20084;-78
2021/03/06 03:06:53;;;;;;;14.73;7.50;;;-3.80;90.90;;;;;;4994972;28;20501;-77
2021/03/06 03:09:20;;;;;;;15.25;7.88;;;-3.90;90.80;;;;;;4975235;28;20037;-77
2021/03/06 03:12:12;;;;;;;13.05;8.20;;;-3.90;90.80;;;;;;4973977;28;20036;-78
2021/03/06 03:14:47;;;;;;;13.50;7.63;;;-4.10;91.10;;;;;;5007042;28;20868;-78
2021/03/06 03:17:42;;;;;;;13.57;8.02;;;-4.00;91.00;;;;;;5006767;28;20030;-77
2021/03/06 03:20:20;;;;;;;13.57;7.72;;;-4.00;90.80;;;;;;5003204;28;20083;-78
2021/03/06 03:22:47;;;;;;;13.80;7.15;;;-4.10;90.70;;;;;;5009524;28;20060;-79
2021/03/06 03:25:13;;;;;;;13.80;7.85;;;-4.00;90.70;;;;;;5002620;28;20585;-77
2021/03/06 03:27:38;;;;;;;11.82;7.50;;;-4.00;90.70;;;;;;4974348;28;20104;-77
2021/03/06 03:30:10;;;;;;;15.52;8.13;;;-4.00;90.50;;;;;;5011778;28;20104;-77
2021/03/06 03:32:36;;;;;;;19.60;9.60;;;-4.00;90.40;;;;;;5011010;28;20034;-77
2021/03/06 03:35:02;;;;;;;14.27;7.78;;;-4.20;90.70;;;;;;5009105;28;20034;-77
2021/03/06 03:37:28;;;;;;;13.27;6.63;;;-4.20;90.90;;;;;;4991704;28;20029;-77
2021/03/06 03:39:53;;;;;;;18.10;8.63;;;-4.10;90.80;;;;;;5009699;28;20113;-77
2021/03/06 03:42:20;;;;;;;13.60;8.02;;;-4.10;90.70;;;;;;4991673;28;20396;-77
2021/03/06 03:44:46;;;;;;;12.60;6.75;;;-4.30;91.10;;;;;;5008343;28;20037;-77
2021/03/06 03:47:11;;;;;;;10.02;5.90;;;-4.20;91.20;;;;;;5002674;28;20033;-77
2021/03/06 03:49:37;;;;;;;11.95;6.50;;;-4.10;90.90;;;;;;4972839;28;20381;-77
2021/03/06 03:52:03;;;;;;;14.73;7.53;;;-4.00;90.80;;;;;;4992868;28;20581;-77
2021/03/06 03:54:29;;;;;;;13.00;6.80;;;-4.30;90.70;;;;;;4981974;28;20029;-78
2021/03/06 03:56:54;;;;;;;13.43;7.32;;;-4.50;91.30;;;;;;5010901;28;20032;-77
2021/03/06 03:59:20;;;;;;;16.63;7.25;;;-4.60;91.70;;;;;;4973217;28;20053;-77
2021/03/06 04:01:45;;;;;;;14.18;7.05;;;-4.70;92.00;;;;;;4989639;28;20129;-78
2021/03/06 04:04:26;;;;;;;10.07;5.47;;;-4.70;92.00;;;;;;5000344;28;20051;-77
2021/03/06 04:06:52;;;;;;;9.85;6.45;;;-4.50;92.10;;;;;;4993498;28;20033;-76
2021/03/06 04:09:18;;;;;;;15.43;6.82;;;-4.50;91.40;;;;;;4994144;28;20469;-78
2021/03/06 04:11:43;;;;;;;15.25;7.53;;;-4.60;91.60;;;;;;4990454;28;20044;-77
2021/03/06 04:14:09;;;;;;;13.73;7.25;;;-4.70;92.10;;;;;;4994331;28;20040;-78
2021/03/06 04:16:34;;;;;;;17.83;7.18;;;-4.70;92.30;;;;;;4988617;28;20049;-77
2021/03/06 04:19:00;;;;;;;12.80;7.35;;;-4.70;92.20;;;;;;5008314;28;20034;-78
2021/03/06 04:21:26;;;;;;;15.27;8.75;;;-4.70;92.20;;;;;;4993076;28;20033;-76
2021/03/06 04:23:51;;;;;;;12.93;7.65;;;-4.80;92.40;;;;;;4994091;28;20030;-78
2021/03/06 04:26:17;;;;;;;12.40;8.02;;;-4.80;92.60;;;;;;4991658;28;20107;-77
2021/03/06 04:28:42;;;;;;;15.13;8.07;;;-4.80;92.60;;;;;;5008008;28;20455;-77
2021/03/06 04:31:08;;;;;;;10.38;7.15;;;-4.80;92.70;;;;;;5009618;28;20025;-77
2021/03/06 04:33:33;;;;;;;11.68;6.95;;;-4.80;92.50;;;;;;5007546;28;20133;-77
2021/03/06 04:35:59;;;;;;;10.98;6.82;;;-4.80;92.40;;;;;;5008704;28;20083;-77
2021/03/06 04:38:25;;;;;;;14.07;7.13;;;-4.70;92.30;;;;;;4990735;28;20125;-77
2021/03/06 04:40:50;;;;;;;13.35;7.35;;;-4.60;92.10;;;;;;4993022;28;20041;-76
2021/03/06 04:43:16;;;;;;;11.45;7.43;;;-4.80;92.20;;;;;;4991447;28;20036;-78
2021/03/06 04:45:41;;;;;;;13.60;7.15;;;-4.90;92.50;;;;;;4991920;28;20029;-77
2021/03/06 04:48:07;;;;;;;14.27;7.00;;;-4.90;92.80;;;;;;5024889;28;20059;-77
2021/03/06 04:50:33;;;;;;;14.57;7.28;;;-4.90;92.60;;;;;;4992383;28;20053;-77
2021/03/06 04:52:58;;;;;;;11.57;7.10;;;-4.80;92.50;;;;;;4998199;28;20022;-77
2021/03/06 04:55:24;;;;;;;14.77;7.80;;;-4.80;92.30;;;;;;4987559;28;20450;-77
2021/03/06 04:57:50;;;;;;;11.77;7.20;;;-4.80;92.30;;;;;;5005464;28;20444;-77
2021/03/06 05:00:16;;;;;;;16.23;7.25;;;-4.80;92.30;;;;;;4996195;28;20026;-77
2021/03/06 05:02:41;;;;;;;9.45;7.03;;;-4.80;92.10;;;;;;5023584;28;20042;-77
2021/03/06 05:05:08;;;;;;;12.60;6.63;;;-4.80;92.20;;;;;;5005899;28;20021;-77
2021/03/06 05:07:33;;;;;;;13.65;6.90;;;-5.00;92.60;;;;;;4991361;28;20045;-77
2021/03/06 05:09:59;;;;;;;13.27;7.35;;;-5.00;93.00;;;;;;5007598;28;20532;-78
2021/03/06 05:12:25;;;;;;;18.10;8.25;;;-4.90;92.70;;;;;;4991579;28;20417;-77
2021/03/06 05:14:50;;;;;;;12.85;7.53;;;-4.80;92.40;;;;;;5007051;28;20030;-78
2021/03/06 05:17:16;;;;;;;18.70;7.60;;;-4.80;92.40;;;;;;4991231;28;20032;-77
2021/03/06 05:19:41;;;;;;;12.52;7.30;;;-4.90;92.60;;;;;;5007455;28;20390;-77
2021/03/06 05:22:07;;;;;;;15.38;7.88;;;-5.00;92.80;;;;;;4991634;28;20163;-78
2021/03/06 05:24:32;;;;;;;12.05;7.55;;;-4.90;93.40;;;;;;4992664;28;20061;-76
2021/03/06 05:27:04;;;;;;;12.05;6.85;;;-4.90;92.70;;;;;;5004057;28;20034;-78
2021/03/06 05:29:33;;;;;;;11.43;6.68;;;-5.00;92.70;;;;;;4985317;28;20073;-77
2021/03/06 05:31:59;;;;;;;12.10;6.88;;;-5.00;92.80;;;;;;4991412;28;20109;-77
2021/03/06 05:34:25;;;;;;;13.23;7.18;;;-5.00;92.80;;;;;;5006101;28;20493;-77
2021/03/06 05:36:50;;;;;;;10.63;6.95;;;-5.00;92.80;;;;;;4991824;28;20064;-77
2021/03/06 05:39:17;;;;;;;15.43;7.45;;;-5.00;92.80;;;;;;5003354;28;20033;-77
2021/03/06 05:41:42;;;;;;;11.35;6.43;;;-4.90;92.70;;;;;;4985132;28;20436;-78
2021/03/06 05:44:09;;;;;;;18.27;7.28;;;-4.90;92.50;;;;;;5006957;28;20116;-78
2021/03/06 05:46:35;;;;;;;13.10;6.47;;;-4.80;92.10;;;;;;4991825;28;20123;-77
2021/03/06 05:49:00;;;;;;;12.85;6.85;;;-4.90;91.80;;;;;;4991179;28;20030;-77
2021/03/06 05:51:26;;;;;;;10.65;6.28;;;-4.90;91.90;;;;;;4992637;28;20030;-78
2021/03/06 05:53:52;;;;;;;11.75;6.90;;;-5.00;92.20;;;;;;5024924;28;20035;-77
2021/03/06 05:56:18;;;;;;;14.73;6.72;;;-5.10;92.60;;;;;;4968103;28;20540;-76
2021/03/06 05:58:44;;;;;;;13.85;6.35;;;-5.20;92.70;;;;;;4987906;28;20124;-76
2021/03/06 06:01:12;;;;;;;9.38;6.20;;;-5.10;93.00;;;;;;5005638;28;20036;-77
2021/03/06 06:03:37;;;;;;;17.52;7.40;;;-5.10;92.90;;;;;;4996170;28;20030;-77
2021/03/06 06:06:03;;;;;;;11.13;6.47;;;-5.10;92.70;;;;;;4992771;28;20448;-78
2021/03/06 06:08:32;;;;;;;10.88;6.18;;;-5.10;92.70;;;;;;4991191;28;20029;-77
2021/03/06 06:10:58;;;;;;;14.18;6.75;;;-5.20;92.80;;;;;;5005224;28;20374;-77
2021/03/06 06:13:23;;;;;;;10.23;6.60;;;-5.30;93.10;;;;;;5005786;28;20030;-78
2021/03/06 06:15:52;;;;;;;11.23;6.68;;;-5.30;93.20;;;;;;5007585;28;20034;-78
2021/03/06 06:18:17;;;;;;;10.50;6.60;;;-5.10;93.10;;;;;;4977522;28;20056;-77
2021/03/06 06:20:43;;;;;;;17.40;7.38;;;-5.10;93.00;;;;;;4990341;28;20038;-78
2021/03/06 06:23:16;;;;;;;13.68;7.35;;;-5.00;93.00;;;;;;5011166;28;20032;-78
2021/03/06 06:25:45;;;;;;;11.80;6.35;;;-5.20;93.10;;;;;;5007825;28;20416;-78
2021/03/06 06:28:10;;;;;;;11.95;6.95;;;-5.10;93.20;;;;;;5025918;28;20053;-78
2021/03/06 06:30:36;;;;;;;10.82;6.82;;;-5.10;93.20;;;;;;4978206;28;20170;-77
2021/03/06 06:33:01;;;;;;;9.60;6.30;;;-5.10;93.10;;;;;;5028270;28;20034;-78
2021/03/06 06:35:27;;;;;;;13.60;6.85;;;-5.20;93.10;;;;;;4999275;28;20153;-78
2021/03/06 06:37:58;;;;;;;11.95;7.32;;;-5.00;93.30;;;;;;4995126;28;20053;-78
2021/03/06 06:40:26;;;;;;;12.27;7.18;;;-5.00;93.30;;;;;;5012146;28;20037;-78
2021/03/06 06:42:52;;;;;;;12.80;6.93;;;-4.90;93.10;;;;;;5009884;28;20524;-78
2021/03/06 06:45:17;;;;;;;10.65;7.15;;;-4.90;93.10;;;;;;4973764;28;20025;-78
2021/03/06 06:47:44;;;;;;;12.63;7.15;;;-4.90;93.20;;;;;;4993274;28;20366;-77
2021/03/06 06:50:11;;;;;;;11.85;6.60;;;-4.90;93.20;;;;;;5011631;28;20455;-77
2021/03/06 06:52:37;;;;;;;12.73;7.40;;;-4.90;93.30;;;;;;4974790;28;20100;-78
2021/03/06 06:55:03;;;;;;;10.75;7.40;;;-4.70;93.40;;;;;;5008227;28;20033;-78
2021/03/06 06:57:29;;;;;;;12.98;7.35;;;-4.70;93.30;;;;;;5031258;28;20441;-78
2021/03/06 06:59:58;;;;;;;16.50;8.20;;;-4.70;92.90;;;;;;4996535;28;20026;-77
2021/03/06 07:02:24;;;;;;;11.38;7.88;;;-4.70;93.40;;;;;;5006536;28;20056;-78
2021/03/06 07:04:52;;;;;;;15.07;8.15;;;-4.60;93.70;;;;;;4992853;28;20041;-77
2021/03/06 07:07:18;;;;;;;12.00;8.07;;;-4.60;93.70;;;;;;4994587;28;20041;-77
2021/03/06 07:10:09;;;;;;;12.18;8.30;;;-4.50;94.00;;;;;;4988514;28;20497;-77
2021/03/06 07:12:36;;;;;;;16.17;8.40;;;-4.30;93.90;;;;;;4985745;28;20126;-77
2021/03/06 07:15:23;;;;;;;11.68;7.45;;;-4.20;94.00;;;;;;5013196;28;20108;-76
2021/03/06 07:17:50;;;;;;;14.20;8.82;;;-4.20;93.90;;;;;;5009857;28;20445;-76
2021/03/06 07:20:22;;;;;;;17.63;8.88;;;-4.10;94.10;;;;;;5002703;28;20037;-76
2021/03/06 07:22:51;;;;;;;15.05;8.57;;;-3.90;94.10;;;;;;5009517;28;20037;-76
2021/03/06 07:25:16;;;;;;;12.18;7.68;;;-4.00;94.20;;;;;;4998477;28;20504;-76
2021/03/06 07:27:42;;;;;;;13.80;7.88;;;-3.80;94.00;;;;;;5026155;28;20029;-76
2021/03/06 07:30:08;;;;;;;15.70;7.13;;;-3.60;94.00;;;;;;5011832;28;20384;-76
2021/03/06 07:32:37;;;;;;;12.13;7.65;;;-3.30;93.70;;;;;;5009481;28;20652;-76
2021/03/06 07:35:05;;;;;;;14.02;7.47;;;-3.50;93.70;;;;;;4990484;28;20030;-77
2021/03/06 07:37:31;;;;;;;15.13;8.55;;;-3.20;93.90;;;;;;4994503;28;20551;-77
2021/03/06 07:39:58;;;;;;;12.52;6.85;;;-3.10;93.90;;;;;;5008430;28;20078;-77
2021/03/06 07:42:37;;;;;;;12.75;7.00;;;-2.90;93.60;;;;;;4973454;28;20448;-77
2021/03/06 07:45:03;;;;;;;11.52;6.15;;;-2.70;93.20;;;;;;5014033;28;20040;-76
2021/03/06 07:47:33;;;;;;;10.43;5.13;;;-2.60;93.30;;;;;;5009599;28;20056;-76
2021/03/06 07:50:00;;;;;;;9.45;5.95;;;-2.30;93.00;;;;;;4994167;28;21351;-76
2021/03/06 07:52:26;;;;;;;10.80;7.07;;;-2.00;92.40;;;;;;4995687;28;20757;-77
2021/03/06 07:54:51;;;;;;;10.35;7.68;;;-1.90;92.10;;;;;;5014060;28;20067;-77
2021/03/06 07:57:17;;;;;;;13.48;7.55;;;-1.90;92.50;;;;;;5012331;28;20022;-76
2021/03/06 07:59:50;;;;;;;14.57;8.38;;;-2.00;92.30;;;;;;4987973;28;20139;-76
2021/03/06 08:02:31;;;;;;;8.52;5.68;;;-2.10;92.90;;;;;;5005438;28;20164;-76
2021/03/06 08:04:56;;;;;;;12.23;8.20;;;-1.70;93.10;;;;;;4991475;28;20081;-76
2021/03/06 08:07:40;;;;;;;9.73;5.28;;;-1.60;92.20;;;;;;4985464;28;20037;-76
2021/03/06 08:10:06;;;;;;;11.85;6.60;;;-1.10;92.20;;;;;;4971525;28;20056;-76
2021/03/06 08:12:32;;;;;;;13.18;8.27;;;-0.90;91.60;;;;;;4970118;28;20478;-77
2021/03/06 08:14:58;;;;;;;12.65;7.50;;;-0.80;91.60;;;;;;4993748;28;20030;-76
2021/03/06 08:17:30;;;;;;;8.73;5.05;;;-1.10;91.80;;;;;;4993350;28;20025;-76
2021/03/06 08:19:56;;;;;;;18.45;8.95;;;-0.80;92.50;;;;;;4994486;28;20045;-76
2021/03/06 08:22:21;;;;;;;10.75;5.47;;;-0.20;91.40;;;;;;4974050;28;20548;-76
2021/03/06 08:24:47;;;;;;;14.20;7.78;;;-0.20;91.90;;;;;;4972505;28;20068;-76
2021/03/06 08:27:13;;;;;;;14.48;9.40;;;0.20;91.10;;;;;;5009095;28;20037;-77
2021/03/06 08:29:40;;;;;;;14.73;8.80;;;0.20;91.00;;;;;;5026719;28;20040;-77
2021/03/06 08:32:12;;;;;;;10.30;5.82;;;-0.10;91.40;;;;;;5009331;28;20048;-77
2021/03/06 08:34:42;;;;;;;7.72;5.82;;;0.40;91.50;;;;;;5008887;28;20061;-77
2021/03/06 08:39:40;;;;;;;15.00;8.25;;;0.80;91.20;;;;;;5025426;28;20045;-78
2021/03/06 08:42:06;;;;;;;10.68;6.07;;;0.70;90.60;;;;;;5015564;28;20025;-77
2021/03/06 08:44:32;;;;;;;10.55;5.30;;;0.80;91.00;;;;;;4987565;28;20044;-77
2021/03/06 08:46:57;;;;;;;10.95;6.00;;;1.60;91.20;;;;;;5007400;28;20453;-77
2021/03/06 08:49:23;;;;;;;12.27;7.82;;;1.70;90.80;;;;;;4989539;28;20065;-77
2021/03/06 08:51:50;;;;;;;7.65;5.07;;;1.80;89.10;;;;;;5008333;28;20041;-77
2021/03/06 08:54:16;;;;;;;10.52;5.55;;;1.90;90.00;;;;;;4985220;28;20060;-77
2021/03/06 08:56:41;;;;;;;8.00;5.75;;;1.80;90.50;;;;;;4991433;28;20429;-77
2021/03/06 08:59:07;;;;;;;13.18;9.15;;;2.40;89.80;;;;;;5009036;28;20432;-77
2021/03/06 09:01:35;;;;;;;17.35;9.05;;;1.70;90.00;;;;;;4991820;28;20034;-76
2021/03/06 09:04:01;;;;;;;8.70;5.38;;;1.70;90.20;;;;;;4992098;28;24821;-77
2021/03/06 09:06:39;;;;;;;7.38;5.22;;;1.80;91.10;;;;;;5007286;28;20543;-77
2021/03/06 09:09:06;;;;;;;17.55;10.25;;;2.60;90.70;;;;;;4991116;28;20040;-77
2021/03/06 09:11:53;;;;;;;18.13;9.30;;;2.00;90.30;;;;;;4976976;28;20477;-77
2021/03/06 09:14:18;;;;;;;15.50;9.45;;;1.30;91.50;;;;;;5008069;28;20037;-77
2021/03/06 09:16:50;;;;;;;16.30;10.27;;;0.90;92.90;;;;;;4979480;28;20045;-77
2021/03/06 09:19:25;;;;;;;17.27;10.10;;;1.60;92.30;;;;;;5007249;28;20030;-77
2021/03/06 09:22:09;;;;;;;18.23;9.90;;;1.40;92.40;;;;;;4990676;28;20049;-77
2021/03/06 09:24:47;;;;;;;18.23;8.98;;;1.40;92.90;;;;;;5004925;28;20057;-77
2021/03/06 09:27:17;;;;;;;12.75;7.18;;;1.60;92.50;;;;;;4975751;28;20029;-77
2021/03/06 09:29:43;;;;;;;11.02;6.38;;;2.00;93.00;;;;;;4990629;28;20481;-76
2021/03/06 09:32:08;;;;;;;14.02;6.93;;;3.20;92.00;;;;;;5015328;28;20525;-75
2021/03/06 09:34:34;;;;;;;13.25;5.07;;;3.60;91.40;;;;;;4976841;28;20044;-76
2021/03/06 09:37:14;;;;;;;13.52;6.45;;;3.70;90.10;;;;;;5008251;28;20393;-76
2021/03/06 09:39:39;;;;;;;9.63;5.63;;;3.90;90.80;;;;;;5006506;28;20532;-78
2021/03/06 09:42:05;;;;;;;11.82;5.05;;;4.10;90.80;;;;;;5009255;28;20094;-76
2021/03/06 09:44:31;;;;;;;13.85;5.47;;;3.70;91.40;;;;;;4990738;28;20092;-77
2021/03/06 09:46:59;;;;;;;11.30;5.95;;;5.00;90.00;;;;;;5005431;28;20073;-77
2021/03/06 09:49:32;;;;;;;11.63;5.68;;;4.00;89.20;;;;;;5007398;28;20026;-77
2021/03/06 09:51:58;;;;;;;9.65;5.28;;;4.30;91.50;;;;;;5006686;28;20034;-77
2021/03/06 09:54:25;;;;;;;10.65;5.85;;;4.70;90.50;;;;;;4989740;28;20089;-77
2021/03/06 09:56:54;;;;;;;9.70;5.10;;;4.40;90.40;;;;;;5006903;28;20041;-77
2021/03/06 09:59:21;;;;;;;16.13;7.07;;;3.30;92.60;;;;;;5015193;28;20033;-77
2021/03/06 10:01:46;;;;;;;14.65;6.45;;;3.00;92.70;;;;;;4989652;28;20034;-77
2021/03/06 10:04:16;;;;;;;15.68;6.25;;;4.30;91.50;;;;;;4999742;28;20499;-77
2021/03/06 10:06:43;;;;;;;12.25;3.92;;;4.70;91.20;;;;;;5007168;28;20064;-77
2021/03/06 10:09:10;;;;;;;12.10;4.72;;;5.10;90.60;;;;;;5024077;28;20091;-77
2021/03/06 10:11:37;;;;;;;7.68;4.40;;;4.50;90.00;;;;;;4989310;28;20048;-77
2021/03/06 10:14:03;;;;;;;9.20;4.03;;;4.50;92.50;;;;;;5006619;28;20057;-77
2021/03/06 10:16:29;;;;;;;10.18;4.22;;;5.70;90.50;;;;;;4971331;28;20057;-77
2021/03/06 10:19:00;;;;;;;6.68;3.75;;;5.80;90.30;;;;;;5007591;28;20064;-77
2021/03/06 10:21:26;;;;;;;10.15;5.05;;;6.80;85.90;;;;;;4990484;28;20366;-77
2021/03/06 10:23:51;;;;;;;8.13;3.30;;;7.60;83.30;;;;;;4991772;28;20041;-77
2021/03/06 10:26:24;;;;;;;9.82;3.95;;;7.10;86.40;;;;;;4998984;28;20046;-77
2021/03/06 10:28:57;;;;;;;7.72;3.50;;;7.00;87.10;;;;;;4974837;28;20040;-77
2021/03/06 10:31:29;;;;;;;16.63;4.55;;;7.20;87.50;;;;;;4993555;28;20045;-77
2021/03/06 10:33:56;;;;;;;8.27;4.07;;;6.50;89.80;;;;;;5006003;28;20030;-76
2021/03/06 10:36:21;;;;;;;5.43;3.53;;;6.70;88.60;;;;;;4986647;28;20036;-77
2021/03/06 10:38:47;;;;;;;8.70;3.15;;;6.90;89.60;;;;;;5006116;28;20397;-77
2021/03/06 10:41:19;;;;;;;6.05;3.80;;;6.50;91.00;;;;;;4993001;28;20040;-77
2021/03/06 10:43:52;;;;;;;13.07;4.72;;;6.00;91.70;;;;;;5005255;28;20037;-77
2021/03/06 10:46:21;;;;;;;8.57;3.75;;;6.50;90.10;;;;;;4979292;28;20054;-77
2021/03/06 10:48:53;;;;;;;7.38;3.65;;;7.20;90.20;;;;;;5007682;28;20030;-77
2021/03/06 10:51:19;;;;;;;10.77;4.40;;;7.00;90.00;;;;;;5002133;28;20068;-77
2021/03/06 10:53:59;;;;;;;8.27;3.50;;;7.30;87.10;;;;;;4990745;28;20065;-77
2021/03/06 10:56:24;;;;;;;7.55;3.42;;;7.90;85.60;;;;;;4994097;28;20026;-77
2021/03/06 10:58:50;;;;;;;6.78;3.88;;;7.80;85.70;;;;;;4991510;28;20096;-77
2021/03/06 11:01:16;;;;;;;8.15;3.85;;;7.60;83.50;;;;;;4980280;28;20076;-77
2021/03/06 11:03:43;;;;;;;6.50;4.18;;;7.00;90.80;;;;;;4974749;28;20577;-77
2021/03/06 11:06:08;;;;;;;10.45;4.45;;;7.10;91.30;;;;;;5005467;28;20417;-77
2021/03/06 11:08:34;;;;;;;17.67;4.07;;;6.20;93.00;;;;;;4990432;28;20041;-77
2021/03/06 11:11:00;;;;;;;5.40;3.60;;;6.30;92.10;;;;;;5008720;28;20037;-77
2021/03/06 11:13:42;;;;;;;9.52;3.95;;;6.70;93.30;;;;;;4994782;28;20026;-77
2021/03/06 11:16:08;;;;;;;6.28;3.88;;;6.90;90.70;;;;;;4992212;28;20033;-77
2021/03/06 11:18:34;;;;;;;6.32;3.38;;;7.60;88.60;;;;;;5010376;28;20531;-77
2021/03/06 11:20:59;;;;;;;10.25;3.35;;;8.30;88.50;;;;;;5027048;28;20044;-77
2021/03/06 11:23:25;;;;;;;5.78;3.30;;;7.40;90.80;;;;;;4974056;28;20113;-77
2021/03/06 11:25:50;;;;;;;9.82;3.17;;;7.60;92.00;;;;;;5009481;28;20041;-77
2021/03/06 11:28:16;;;;;;;6.00;3.95;;;8.60;86.80;;;;;;5010604;28;20488;-77
2021/03/06 11:30:46;;;;;;;8.88;3.60;;;8.80;84.70;;;;;;4992351;28;20022;-77
2021/03/06 11:33:16;;;;;;;5.57;3.38;;;8.90;87.30;;;;;;4990531;28;22219;-77
2021/03/06 11:35:41;;;;;;;4.97;3.00;;;9.00;85.60;;;;;;5008673;28;20041;-77
2021/03/06 11:38:07;;;;;;;6.20;3.20;;;9.40;79.40;;;;;;5009983;28;20044;-76
2021/03/06 11:40:34;;;;;;;6.85;3.30;;;9.00;83.30;;;;;;4993602;28;20029;-77
2021/03/06 11:42:59;;;;;;;14.10;3.80;;;9.60;79.60;;;;;;5009414;28;20584;-77
2021/03/06 11:45:25;;;;;;;4.70;3.30;;;8.60;88.00;;;;;;5009731;28;20104;-76
2021/03/06 11:47:51;;;;;;;6.53;3.60;;;7.50;91.70;;;;;;5010491;28;20017;-76
2021/03/06 11:50:18;;;;;;;6.72;3.47;;;7.80;91.30;;;;;;4988931;28;20088;-76
2021/03/06 11:52:44;;;;;;;6.72;3.60;;;8.60;87.40;;;;;;5008362;28;20037;-77
2021/03/06 11:55:10;;;;;;;7.68;3.97;;;8.30;89.50;;;;;;4992730;28;20377;-76
2021/03/06 11:57:36;;;;;;;12.00;3.88;;;7.70;89.00;;;;;;5008818;28;20056;-76
2021/03/06 12:00:04;;;;;;;9.95;3.40;;;7.60;90.50;;;;;;5024250;28;20030;-77
2021/03/06 12:02:30;;;;;;;5.57;3.65;;;8.50;88.60;;;;;;4998298;28;20501;-76
2021/03/06 12:04:55;;;;;;;7.90;4.07;;;9.30;83.70;;;;;;4314155;28;9999784;-77
2021/03/06 12:07:21;;;;;;;6.13;2.97;;;10.50;78.50;;;;;;4991624;28;20087;-76
2021/03/06 12:09:46;;;;;;;8.77;3.95;;;10.20;79.80;;;;;;4993143;28;20053;-77
2021/03/06 12:12:12;;;;;;;8.60;4.13;;;9.80;80.40;;;;;;4996106;28;20045;-76
2021/03/06 12:14:37;;;;;;;9.55;3.72;;;10.60;74.20;;;;;;5012482;28;20056;-77
2021/03/06 12:17:03;;;;;;;7.40;3.55;;;9.30;85.10;;;;;;5024092;28;20029;-77
2021/03/06 12:19:29;;;;;;;8.02;3.78;;;9.60;83.20;;;;;;4993239;28;20045;-77
2021/03/06 12:21:54;;;;;;;5.45;3.92;;;9.90;80.20;;;;;;5007211;28;20363;-77
2021/03/06 12:24:20;;;;;;;5.63;3.45;;;10.00;80.80;;;;;;4988426;28;20079;-77
2021/03/06 12:26:47;;;;;;;7.63;3.42;;;8.70;85.80;;;;;;4996780;28;20033;-77
2021/03/06 12:29:13;;;;;;;7.15;3.75;;;9.20;82.80;;;;;;4993515;28;20041;-76
2021/03/06 12:31:39;;;;;;;5.60;3.72;;;9.00;82.40;;;;;;4999135;28;20045;-77
2021/03/06 12:34:06;;;;;;;10.00;4.47;;;10.60;77.20;;;;;;4995213;28;20362;-77
2021/03/06 12:36:31;;;;;;;7.25;4.63;;;11.10;77.50;;;;;;4975943;28;20484;-78
2021/03/06 12:38:57;;;;;;;12.68;4.70;;;11.00;76.50;;;;;;4992425;28;20037;-77
2021/03/06 12:41:22;;;;;;;8.98;4.63;;;8.70;80.10;;;;;;5011615;28;20092;-77
2021/03/06 12:43:48;;;;;;;5.68;4.10;;;7.90;84.20;;;;;;4991355;28;20045;-77
2021/03/06 12:46:15;;;;;;;10.00;3.92;;;7.80;85.50;;;;;;5011134;28;20676;-78
2021/03/06 12:48:40;;;;;;;4.30;3.40;;;8.60;84.80;;;;;;4966618;28;20448;-77